sensor_id;sensor_type;location;lat;lon;timestamp;P1;durP1;ratioP1;P2;durP2;ratioP2
24259;SDS011;12384;48.112;18.418;2023-03-14T00:00:32;16.10;;;14.63;;
24259;SDS011;12384;48.112;18.418;2023-03-14T00:03:00;16.37;;;14.80;;
24259;SDS011;12384;48.112;18.418;2023-03-14T00:05:29;17.67;;;16.03;;
24259;SDS011;12384;48.112;18.418;2023-03-14T00:07:57;17.57;;;15.87;;
24259;SDS011;12384;48.112;18.418;2023-03-14T00:10:25;16.93;;;15.30;;
24259;SDS011;12384;48.112;18.418;2023-03-14T00:12:55;16.87;;;15.27;;
24259;SDS011;12384;48.112;18.418;2023-03-14T00:15:25;17.03;;;15.50;;
24259;SDS011;12384;48.112;18.418;2023-03-14T00:17:53;17.07;;;15.47;;
24259;SDS011;12384;48.112;18.418;2023-03-14T00:20:25;17.23;;;15.57;;
24259;SDS011;12384;48.112;18.418;2023-03-14T00:22:53;17.83;;;16.03;;
24259;SDS011;12384;48.112;18.418;2023-03-14T00:25:21;17.93;;;16.13;;
24259;SDS011;12384;48.112;18.418;2023-03-14T00:27:50;17.17;;;15.50;;
24259;SDS011;12384;48.112;18.418;2023-03-14T00:30:21;17.50;;;15.80;;
24259;SDS011;12384;48.112;18.418;2023-03-14T00:32:49;16.50;;;14.90;;
24259;SDS011;12384;48.112;18.418;2023-03-14T00:35:18;17.13;;;15.43;;
24259;SDS011;12384;48.112;18.418;2023-03-14T00:37:46;16.33;;;14.83;;
24259;SDS011;12384;48.112;18.418;2023-03-14T00:40:15;16.83;;;15.33;;
24259;SDS011;12384;48.112;18.418;2023-03-14T00:42:43;17.33;;;15.63;;
24259;SDS011;12384;48.112;18.418;2023-03-14T00:45:12;16.97;;;15.37;;
24259;SDS011;12384;48.112;18.418;2023-03-14T00:47:41;17.07;;;15.30;;
24259;SDS011;12384;48.112;18.418;2023-03-14T00:50:15;16.17;;;14.77;;
24259;SDS011;12384;48.112;18.418;2023-03-14T00:52:44;17.97;;;16.27;;
24259;SDS011;12384;48.112;18.418;2023-03-14T00:55:15;16.47;;;14.87;;
24259;SDS011;12384;48.112;18.418;2023-03-14T00:57:43;17.37;;;15.63;;
24259;SDS011;12384;48.112;18.418;2023-03-14T01:00:12;17.00;;;15.60;;
24259;SDS011;12384;48.112;18.418;2023-03-14T01:02:43;17.07;;;15.47;;
24259;SDS011;12384;48.112;18.418;2023-03-14T01:05:11;16.97;;;15.37;;
24259;SDS011;12384;48.112;18.418;2023-03-14T01:07:41;16.53;;;14.93;;
24259;SDS011;12384;48.112;18.418;2023-03-14T01:10:11;16.77;;;15.23;;
24259;SDS011;12384;48.112;18.418;2023-03-14T01:12:39;17.10;;;15.37;;
24259;SDS011;12384;48.112;18.418;2023-03-14T01:15:10;16.97;;;15.27;;
24259;SDS011;12384;48.112;18.418;2023-03-14T01:17:39;16.63;;;15.10;;
24259;SDS011;12384;48.112;18.418;2023-03-14T01:20:10;16.83;;;15.23;;
24259;SDS011;12384;48.112;18.418;2023-03-14T01:22:40;16.97;;;14.90;;
24259;SDS011;12384;48.112;18.418;2023-03-14T01:25:11;16.43;;;14.77;;
24259;SDS011;12384;48.112;18.418;2023-03-14T01:27:42;16.27;;;14.77;;
24259;SDS011;12384;48.112;18.418;2023-03-14T01:30:12;17.10;;;15.30;;
24259;SDS011;12384;48.112;18.418;2023-03-14T01:32:40;16.00;;;14.47;;
24259;SDS011;12384;48.112;18.418;2023-03-14T01:35:10;16.47;;;14.87;;
24259;SDS011;12384;48.112;18.418;2023-03-14T01:37:39;16.40;;;14.83;;
24259;SDS011;12384;48.112;18.418;2023-03-14T01:40:13;16.27;;;14.63;;
24259;SDS011;12384;48.112;18.418;2023-03-14T01:42:46;17.07;;;14.23;;
24259;SDS011;12384;48.112;18.418;2023-03-14T01:48:34;15.53;;;14.13;;
24259;SDS011;12384;48.112;18.418;2023-03-14T01:51:08;16.40;;;14.70;;
24259;SDS011;12384;48.112;18.418;2023-03-14T01:53:41;16.27;;;14.67;;
24259;SDS011;12384;48.112;18.418;2023-03-14T01:56:12;15.17;;;13.67;;
24259;SDS011;12384;48.112;18.418;2023-03-14T01:58:43;14.90;;;13.50;;
24259;SDS011;12384;48.112;18.418;2023-03-14T02:01:15;16.90;;;14.87;;
24259;SDS011;12384;48.112;18.418;2023-03-14T02:03:47;16.40;;;14.87;;
24259;SDS011;12384;48.112;18.418;2023-03-14T02:06:24;15.53;;;14.17;;
24259;SDS011;12384;48.112;18.418;2023-03-14T02:08:58;16.23;;;14.80;;
24259;SDS011;12384;48.112;18.418;2023-03-14T02:11:32;16.73;;;14.57;;
24259;SDS011;12384;48.112;18.418;2023-03-14T02:14:04;14.97;;;13.57;;
24259;SDS011;12384;48.112;18.418;2023-03-14T02:16:52;15.43;;;14.03;;
24259;SDS011;12384;48.112;18.418;2023-03-14T02:19:54;16.70;;;15.20;;
24259;SDS011;12384;48.112;18.418;2023-03-14T02:22:55;15.67;;;14.33;;
24259;SDS011;12384;48.112;18.418;2023-03-14T02:25:28;15.10;;;13.73;;
24259;SDS011;12384;48.112;18.418;2023-03-14T02:28:08;14.77;;;13.57;;
24259;SDS011;12384;48.112;18.418;2023-03-14T02:30:38;15.50;;;14.10;;
24259;SDS011;12384;48.112;18.418;2023-03-14T02:33:08;15.30;;;13.80;;
24259;SDS011;12384;48.112;18.418;2023-03-14T02:35:43;14.93;;;13.43;;
24259;SDS011;12384;48.112;18.418;2023-03-14T02:38:17;15.77;;;14.20;;
24259;SDS011;12384;48.112;18.418;2023-03-14T02:40:50;14.63;;;13.33;;
24259;SDS011;12384;48.112;18.418;2023-03-14T02:43:20;14.37;;;13.07;;
24259;SDS011;12384;48.112;18.418;2023-03-14T02:45:56;13.83;;;12.63;;
24259;SDS011;12384;48.112;18.418;2023-03-14T02:48:25;13.70;;;12.50;;
24259;SDS011;12384;48.112;18.418;2023-03-14T02:50:56;15.07;;;13.57;;
24259;SDS011;12384;48.112;18.418;2023-03-14T02:53:29;12.73;;;11.53;;
24259;SDS011;12384;48.112;18.418;2023-03-14T02:56:04;13.67;;;12.47;;
24259;SDS011;12384;48.112;18.418;2023-03-14T02:58:37;14.83;;;13.00;;
24259;SDS011;12384;48.112;18.418;2023-03-14T03:01:18;14.80;;;13.43;;
24259;SDS011;12384;48.112;18.418;2023-03-14T03:03:46;14.70;;;13.27;;
24259;SDS011;12384;48.112;18.418;2023-03-14T03:06:15;14.80;;;13.50;;
24259;SDS011;12384;48.112;18.418;2023-03-14T03:08:43;14.90;;;13.50;;
24259;SDS011;12384;48.112;18.418;2023-03-14T03:11:12;14.40;;;13.00;;
24259;SDS011;12384;48.112;18.418;2023-03-14T03:13:41;15.40;;;14.10;;
24259;SDS011;12384;48.112;18.418;2023-03-14T03:16:13;14.27;;;12.87;;
24259;SDS011;12384;48.112;18.418;2023-03-14T03:18:42;14.97;;;13.47;;
24259;SDS011;12384;48.112;18.418;2023-03-14T03:21:10;14.77;;;13.47;;
24259;SDS011;12384;48.112;18.418;2023-03-14T03:23:41;15.23;;;13.93;;
24259;SDS011;12384;48.112;18.418;2023-03-14T03:26:10;14.97;;;13.67;;
24259;SDS011;12384;48.112;18.418;2023-03-14T03:28:39;14.30;;;13.00;;
24259;SDS011;12384;48.112;18.418;2023-03-14T03:31:09;14.60;;;13.27;;
24259;SDS011;12384;48.112;18.418;2023-03-14T03:33:38;15.13;;;13.57;;
24259;SDS011;12384;48.112;18.418;2023-03-14T03:36:08;12.87;;;11.57;;
24259;SDS011;12384;48.112;18.418;2023-03-14T03:38:38;15.47;;;13.87;;
24259;SDS011;12384;48.112;18.418;2023-03-14T03:41:08;14.67;;;13.17;;
24259;SDS011;12384;48.112;18.418;2023-03-14T03:43:36;15.07;;;13.47;;
24259;SDS011;12384;48.112;18.418;2023-03-14T03:46:09;15.30;;;14.00;;
24259;SDS011;12384;48.112;18.418;2023-03-14T03:48:38;14.43;;;13.20;;
24259;SDS011;12384;48.112;18.418;2023-03-14T03:51:07;14.53;;;13.10;;
24259;SDS011;12384;48.112;18.418;2023-03-14T03:53:38;13.93;;;12.63;;
24259;SDS011;12384;48.112;18.418;2023-03-14T03:56:10;14.53;;;13.17;;
24259;SDS011;12384;48.112;18.418;2023-03-14T03:58:40;13.23;;;12.13;;
24259;SDS011;12384;48.112;18.418;2023-03-14T04:01:10;14.33;;;13.00;;
24259;SDS011;12384;48.112;18.418;2023-03-14T04:03:39;13.80;;;12.60;;
24259;SDS011;12384;48.112;18.418;2023-03-14T04:06:09;13.40;;;12.27;;
24259;SDS011;12384;48.112;18.418;2023-03-14T04:08:41;13.80;;;12.67;;
24259;SDS011;12384;48.112;18.418;2023-03-14T04:11:39;12.87;;;11.67;;
24259;SDS011;12384;48.112;18.418;2023-03-14T04:14:20;12.53;;;11.33;;
24259;SDS011;12384;48.112;18.418;2023-03-14T04:16:59;12.80;;;11.73;;
24259;SDS011;12384;48.112;18.418;2023-03-14T04:19:29;14.53;;;13.07;;
24259;SDS011;12384;48.112;18.418;2023-03-14T04:21:57;13.93;;;12.43;;
24259;SDS011;12384;48.112;18.418;2023-03-14T04:24:31;14.07;;;12.67;;
24259;SDS011;12384;48.112;18.418;2023-03-14T04:27:01;14.57;;;13.17;;
24259;SDS011;12384;48.112;18.418;2023-03-14T04:29:33;13.47;;;12.17;;
24259;SDS011;12384;48.112;18.418;2023-03-14T04:32:03;13.63;;;12.43;;
24259;SDS011;12384;48.112;18.418;2023-03-14T04:34:31;12.70;;;11.60;;
24259;SDS011;12384;48.112;18.418;2023-03-14T04:37:03;12.87;;;11.67;;
24259;SDS011;12384;48.112;18.418;2023-03-14T04:39:36;13.10;;;12.00;;
24259;SDS011;12384;48.112;18.418;2023-03-14T04:42:11;12.43;;;11.43;;
24259;SDS011;12384;48.112;18.418;2023-03-14T04:44:40;13.40;;;12.27;;
24259;SDS011;12384;48.112;18.418;2023-03-14T04:47:13;13.97;;;12.57;;
24259;SDS011;12384;48.112;18.418;2023-03-14T04:49:43;13.37;;;12.20;;
24259;SDS011;12384;48.112;18.418;2023-03-14T04:52:13;12.70;;;11.70;;
24259;SDS011;12384;48.112;18.418;2023-03-14T04:54:42;13.10;;;11.73;;
24259;SDS011;12384;48.112;18.418;2023-03-14T04:57:11;13.33;;;12.13;;
24259;SDS011;12384;48.112;18.418;2023-03-14T04:59:40;13.10;;;11.80;;
24259;SDS011;12384;48.112;18.418;2023-03-14T05:02:30;12.50;;;11.50;;
24259;SDS011;12384;48.112;18.418;2023-03-14T05:05:17;13.67;;;12.40;;
24259;SDS011;12384;48.112;18.418;2023-03-14T05:08:07;13.43;;;12.13;;
24259;SDS011;12384;48.112;18.418;2023-03-14T05:10:42;13.13;;;11.93;;
24259;SDS011;12384;48.112;18.418;2023-03-14T05:13:31;13.10;;;12.10;;
24259;SDS011;12384;48.112;18.418;2023-03-14T05:16:18;13.07;;;11.77;;
24259;SDS011;12384;48.112;18.418;2023-03-14T05:18:58;14.30;;;13.00;;
24259;SDS011;12384;48.112;18.418;2023-03-14T05:21:34;14.00;;;12.80;;
24259;SDS011;12384;48.112;18.418;2023-03-14T05:24:22;14.07;;;12.97;;
24259;SDS011;12384;48.112;18.418;2023-03-14T05:26:51;14.47;;;13.10;;
24259;SDS011;12384;48.112;18.418;2023-03-14T05:29:42;13.77;;;12.57;;
24259;SDS011;12384;48.112;18.418;2023-03-14T05:32:31;14.40;;;13.07;;
24259;SDS011;12384;48.112;18.418;2023-03-14T05:35:20;13.30;;;12.13;;
24259;SDS011;12384;48.112;18.418;2023-03-14T05:38:09;13.43;;;12.27;;
24259;SDS011;12384;48.112;18.418;2023-03-14T05:40:53;13.53;;;12.33;;
24259;SDS011;12384;48.112;18.418;2023-03-14T05:43:48;13.40;;;12.10;;
24259;SDS011;12384;48.112;18.418;2023-03-14T05:46:43;13.67;;;12.43;;
24259;SDS011;12384;48.112;18.418;2023-03-14T05:49:28;13.90;;;12.80;;
24259;SDS011;12384;48.112;18.418;2023-03-14T05:51:58;13.10;;;11.90;;
24259;SDS011;12384;48.112;18.418;2023-03-14T05:54:52;13.53;;;12.43;;
24259;SDS011;12384;48.112;18.418;2023-03-14T05:57:41;12.77;;;11.73;;
24259;SDS011;12384;48.112;18.418;2023-03-14T06:00:17;13.67;;;12.43;;
24259;SDS011;12384;48.112;18.418;2023-03-14T06:02:56;12.60;;;11.50;;
24259;SDS011;12384;48.112;18.418;2023-03-14T06:05:29;12.47;;;11.40;;
24259;SDS011;12384;48.112;18.418;2023-03-14T06:08:01;14.07;;;12.97;;
24259;SDS011;12384;48.112;18.418;2023-03-14T06:10:31;13.53;;;12.30;;
24259;SDS011;12384;48.112;18.418;2023-03-14T06:12:59;14.63;;;13.33;;
24259;SDS011;12384;48.112;18.418;2023-03-14T06:15:30;14.20;;;12.90;;
24259;SDS011;12384;48.112;18.418;2023-03-14T06:17:59;16.23;;;14.77;;
24259;SDS011;12384;48.112;18.418;2023-03-14T06:20:28;15.97;;;14.47;;
24259;SDS011;12384;48.112;18.418;2023-03-14T06:22:57;16.50;;;15.00;;
24259;SDS011;12384;48.112;18.418;2023-03-14T06:25:26;14.77;;;13.57;;
24259;SDS011;12384;48.112;18.418;2023-03-14T06:27:55;14.30;;;13.00;;
24259;SDS011;12384;48.112;18.418;2023-03-14T06:30:24;14.13;;;12.83;;
24259;SDS011;12384;48.112;18.418;2023-03-14T06:32:53;14.13;;;12.83;;
24259;SDS011;12384;48.112;18.418;2023-03-14T06:35:22;14.07;;;12.77;;
24259;SDS011;12384;48.112;18.418;2023-03-14T06:37:51;13.90;;;12.70;;
24259;SDS011;12384;48.112;18.418;2023-03-14T06:40:19;14.47;;;11.90;;
24259;SDS011;12384;48.112;18.418;2023-03-14T06:43:05;13.50;;;12.10;;
24259;SDS011;12384;48.112;18.418;2023-03-14T06:45:35;14.77;;;13.37;;
24259;SDS011;12384;48.112;18.418;2023-03-14T06:48:04;13.77;;;12.27;;
24259;SDS011;12384;48.112;18.418;2023-03-14T06:50:38;13.43;;;12.10;;
24259;SDS011;12384;48.112;18.418;2023-03-14T06:53:07;12.90;;;11.63;;
24259;SDS011;12384;48.112;18.418;2023-03-14T06:55:40;12.57;;;11.47;;
24259;SDS011;12384;48.112;18.418;2023-03-14T06:58:11;12.87;;;11.73;;
24259;SDS011;12384;48.112;18.418;2023-03-14T07:00:42;12.90;;;11.70;;
24259;SDS011;12384;48.112;18.418;2023-03-14T07:03:14;13.27;;;11.80;;
24259;SDS011;12384;48.112;18.418;2023-03-14T07:05:47;13.00;;;11.90;;
24259;SDS011;12384;48.112;18.418;2023-03-14T07:08:16;12.77;;;11.67;;
24259;SDS011;12384;48.112;18.418;2023-03-14T07:10:44;12.50;;;11.50;;
24259;SDS011;12384;48.112;18.418;2023-03-14T07:13:14;12.53;;;11.37;;
24259;SDS011;12384;48.112;18.418;2023-03-14T07:15:50;13.53;;;12.33;;
24259;SDS011;12384;48.112;18.418;2023-03-14T07:18:19;12.80;;;11.70;;
24259;SDS011;12384;48.112;18.418;2023-03-14T07:20:48;13.50;;;12.30;;
24259;SDS011;12384;48.112;18.418;2023-03-14T07:23:18;12.33;;;11.30;;
24259;SDS011;12384;48.112;18.418;2023-03-14T07:25:48;13.97;;;12.67;;
24259;SDS011;12384;48.112;18.418;2023-03-14T07:28:21;13.63;;;12.30;;
24259;SDS011;12384;48.112;18.418;2023-03-14T07:30:57;12.87;;;11.67;;
24259;SDS011;12384;48.112;18.418;2023-03-14T07:33:30;12.67;;;11.60;;
24259;SDS011;12384;48.112;18.418;2023-03-14T07:36:00;12.77;;;11.60;;
24259;SDS011;12384;48.112;18.418;2023-03-14T07:38:30;13.87;;;12.57;;
24259;SDS011;12384;48.112;18.418;2023-03-14T07:41:10;14.03;;;12.73;;
24259;SDS011;12384;48.112;18.418;2023-03-14T07:43:47;12.97;;;11.87;;
24259;SDS011;12384;48.112;18.418;2023-03-14T07:46:16;13.63;;;12.40;;
24259;SDS011;12384;48.112;18.418;2023-03-14T07:48:45;14.43;;;13.13;;
24259;SDS011;12384;48.112;18.418;2023-03-14T07:51:13;12.90;;;11.80;;
24259;SDS011;12384;48.112;18.418;2023-03-14T07:53:42;13.47;;;12.27;;
24259;SDS011;12384;48.112;18.418;2023-03-14T07:56:10;13.03;;;11.83;;
24259;SDS011;12384;48.112;18.418;2023-03-14T07:58:39;12.87;;;11.57;;
24259;SDS011;12384;48.112;18.418;2023-03-14T08:01:09;12.10;;;11.00;;
24259;SDS011;12384;48.112;18.418;2023-03-14T08:03:37;12.27;;;11.20;;
24259;SDS011;12384;48.112;18.418;2023-03-14T08:06:06;11.70;;;10.83;;
24259;SDS011;12384;48.112;18.418;2023-03-14T08:08:34;13.30;;;12.00;;
24259;SDS011;12384;48.112;18.418;2023-03-14T08:11:17;12.17;;;11.07;;
24259;SDS011;12384;48.112;18.418;2023-03-14T08:13:46;11.33;;;10.43;;
24259;SDS011;12384;48.112;18.418;2023-03-14T08:16:18;11.17;;;10.27;;
24259;SDS011;12384;48.112;18.418;2023-03-14T08:18:46;12.10;;;11.03;;
24259;SDS011;12384;48.112;18.418;2023-03-14T08:21:15;12.13;;;11.17;;
24259;SDS011;12384;48.112;18.418;2023-03-14T08:23:43;11.53;;;10.70;;
24259;SDS011;12384;48.112;18.418;2023-03-14T08:26:12;11.40;;;10.50;;
24259;SDS011;12384;48.112;18.418;2023-03-14T08:28:40;11.53;;;10.63;;
24259;SDS011;12384;48.112;18.418;2023-03-14T08:31:09;11.00;;;9.90;;
24259;SDS011;12384;48.112;18.418;2023-03-14T08:33:39;11.80;;;10.60;;
24259;SDS011;12384;48.112;18.418;2023-03-14T08:36:07;10.70;;;9.90;;
24259;SDS011;12384;48.112;18.418;2023-03-14T08:38:36;11.80;;;10.90;;
24259;SDS011;12384;48.112;18.418;2023-03-14T08:41:05;11.50;;;10.40;;
24259;SDS011;12384;48.112;18.418;2023-03-14T08:43:33;12.53;;;11.33;;
24259;SDS011;12384;48.112;18.418;2023-03-14T08:46:02;14.93;;;13.50;;
24259;SDS011;12384;48.112;18.418;2023-03-14T08:48:31;12.73;;;11.63;;
24259;SDS011;12384;48.112;18.418;2023-03-14T08:51:05;12.93;;;11.73;;
24259;SDS011;12384;48.112;18.418;2023-03-14T08:53:34;13.23;;;12.13;;
24259;SDS011;12384;48.112;18.418;2023-03-14T08:56:02;13.20;;;11.80;;
24259;SDS011;12384;48.112;18.418;2023-03-14T08:58:32;11.10;;;10.20;;
24259;SDS011;12384;48.112;18.418;2023-03-14T09:01:02;11.83;;;10.80;;
24259;SDS011;12384;48.112;18.418;2023-03-14T09:03:30;11.67;;;10.67;;
24259;SDS011;12384;48.112;18.418;2023-03-14T09:06:01;10.87;;;9.93;;
24259;SDS011;12384;48.112;18.418;2023-03-14T09:08:32;11.53;;;10.73;;
24259;SDS011;12384;48.112;18.418;2023-03-14T09:11:06;11.27;;;10.20;;
24259;SDS011;12384;48.112;18.418;2023-03-14T09:13:35;12.25;;;11.25;;
24259;SDS011;12384;48.112;18.418;2023-03-14T09:16:05;11.98;;;11.02;;
24259;SDS011;12384;48.112;18.418;2023-03-14T09:18:34;12.13;;;11.15;;
24259;SDS011;12384;48.112;18.418;2023-03-14T09:21:03;11.52;;;10.52;;
24259;SDS011;12384;48.112;18.418;2023-03-14T09:23:33;11.10;;;10.07;;
24259;SDS011;12384;48.112;18.418;2023-03-14T09:26:02;11.82;;;10.73;;
24259;SDS011;12384;48.112;18.418;2023-03-14T09:28:30;11.25;;;10.35;;
24259;SDS011;12384;48.112;18.418;2023-03-14T09:31:04;11.48;;;10.57;;
24259;SDS011;12384;48.112;18.418;2023-03-14T09:33:34;11.18;;;10.23;;
24259;SDS011;12384;48.112;18.418;2023-03-14T09:36:03;9.98;;;9.07;;
24259;SDS011;12384;48.112;18.418;2023-03-14T09:38:33;9.60;;;8.90;;
24259;SDS011;12384;48.112;18.418;2023-03-14T09:41:03;10.30;;;9.60;;
24259;SDS011;12384;48.112;18.418;2023-03-14T09:43:42;10.68;;;9.60;;
24259;SDS011;12384;48.112;18.418;2023-03-14T09:46:13;11.13;;;10.13;;
24259;SDS011;12384;48.112;18.418;2023-03-14T09:48:43;10.88;;;10.07;;
24259;SDS011;12384;48.112;18.418;2023-03-14T09:51:13;10.37;;;9.57;;
24259;SDS011;12384;48.112;18.418;2023-03-14T09:53:48;9.50;;;8.80;;
24259;SDS011;12384;48.112;18.418;2023-03-14T09:56:18;10.40;;;9.50;;
24259;SDS011;12384;48.112;18.418;2023-03-14T09:58:50;10.57;;;9.67;;
24259;SDS011;12384;48.112;18.418;2023-03-14T10:01:22;10.30;;;9.47;;
24259;SDS011;12384;48.112;18.418;2023-03-14T10:03:57;10.03;;;9.33;;
24259;SDS011;12384;48.112;18.418;2023-03-14T10:06:30;10.77;;;10.00;;
24259;SDS011;12384;48.112;18.418;2023-03-14T10:09:00;10.13;;;9.43;;
24259;SDS011;12384;48.112;18.418;2023-03-14T10:11:30;11.00;;;10.20;;
24259;SDS011;12384;48.112;18.418;2023-03-14T10:14:03;11.80;;;10.83;;
24259;SDS011;12384;48.112;18.418;2023-03-14T10:16:34;13.73;;;12.37;;
24259;SDS011;12384;48.112;18.418;2023-03-14T10:19:05;14.93;;;13.63;;
24259;SDS011;12384;48.112;18.418;2023-03-14T10:21:37;13.00;;;11.90;;
24259;SDS011;12384;48.112;18.418;2023-03-14T10:24:08;11.70;;;10.73;;
24259;SDS011;12384;48.112;18.418;2023-03-14T10:26:48;11.40;;;10.50;;
24259;SDS011;12384;48.112;18.418;2023-03-14T10:29:17;11.17;;;10.37;;
24259;SDS011;12384;48.112;18.418;2023-03-14T10:31:51;13.30;;;12.10;;
24259;SDS011;12384;48.112;18.418;2023-03-14T10:34:22;11.50;;;10.57;;
24259;SDS011;12384;48.112;18.418;2023-03-14T10:36:53;11.13;;;10.33;;
24259;SDS011;12384;48.112;18.418;2023-03-14T10:39:28;11.63;;;10.13;;
24259;SDS011;12384;48.112;18.418;2023-03-14T10:42:15;20.03;;;18.03;;
24259;SDS011;12384;48.112;18.418;2023-03-14T10:44:49;27.93;;;20.10;;
24259;SDS011;12384;48.112;18.418;2023-03-14T10:47:23;15.47;;;13.90;;
24259;SDS011;12384;48.112;18.418;2023-03-14T10:49:55;12.73;;;11.63;;
24259;SDS011;12384;48.112;18.418;2023-03-14T10:52:26;11.20;;;10.40;;
24259;SDS011;12384;48.112;18.418;2023-03-14T10:55:03;11.23;;;10.23;;
24259;SDS011;12384;48.112;18.418;2023-03-14T10:57:38;10.93;;;10.00;;
24259;SDS011;12384;48.112;18.418;2023-03-14T11:00:11;12.00;;;11.00;;
24259;SDS011;12384;48.112;18.418;2023-03-14T11:02:56;10.47;;;9.67;;
24259;SDS011;12384;48.112;18.418;2023-03-14T11:05:35;10.57;;;9.83;;
24259;SDS011;12384;48.112;18.418;2023-03-14T11:08:09;11.43;;;10.53;;
24259;SDS011;12384;48.112;18.418;2023-03-14T11:10:44;10.23;;;9.33;;
24259;SDS011;12384;48.112;18.418;2023-03-14T11:13:17;11.07;;;10.27;;
24259;SDS011;12384;48.112;18.418;2023-03-14T11:15:55;9.23;;;8.43;;
24259;SDS011;12384;48.112;18.418;2023-03-14T11:18:42;10.23;;;9.33;;
24259;SDS011;12384;48.112;18.418;2023-03-14T11:21:32;10.93;;;10.03;;
24259;SDS011;12384;48.112;18.418;2023-03-14T11:24:15;12.63;;;11.57;;
24259;SDS011;12384;48.112;18.418;2023-03-14T11:26:55;13.50;;;12.40;;
24259;SDS011;12384;48.112;18.418;2023-03-14T11:29:32;16.23;;;14.60;;
24259;SDS011;12384;48.112;18.418;2023-03-14T11:32:10;14.90;;;13.50;;
24259;SDS011;12384;48.112;18.418;2023-03-14T11:34:43;12.87;;;11.87;;
24259;SDS011;12384;48.112;18.418;2023-03-14T11:37:21;12.87;;;11.80;;
24259;SDS011;12384;48.112;18.418;2023-03-14T11:39:55;13.50;;;12.30;;
24259;SDS011;12384;48.112;18.418;2023-03-14T11:42:31;13.20;;;12.10;;
24259;SDS011;12384;48.112;18.418;2023-03-14T11:45:01;12.67;;;11.57;;
24259;SDS011;12384;48.112;18.418;2023-03-14T11:47:32;12.67;;;11.47;;
24259;SDS011;12384;48.112;18.418;2023-03-14T11:50:07;11.53;;;10.47;;
24259;SDS011;12384;48.112;18.418;2023-03-14T11:52:45;12.47;;;11.47;;
24259;SDS011;12384;48.112;18.418;2023-03-14T11:55:18;13.27;;;12.27;;
24259;SDS011;12384;48.112;18.418;2023-03-14T11:57:55;13.53;;;12.40;;
24259;SDS011;12384;48.112;18.418;2023-03-14T12:00:27;12.17;;;11.17;;
24259;SDS011;12384;48.112;18.418;2023-03-14T12:02:58;12.43;;;11.53;;
24259;SDS011;12384;48.112;18.418;2023-03-14T12:05:38;13.70;;;12.43;;
24259;SDS011;12384;48.112;18.418;2023-03-14T12:08:19;13.67;;;12.50;;
24259;SDS011;12384;48.112;18.418;2023-03-14T12:11:00;13.57;;;12.50;;
24259;SDS011;12384;48.112;18.418;2023-03-14T12:13:36;13.53;;;12.33;;
24259;SDS011;12384;48.112;18.418;2023-03-14T12:16:06;11.53;;;10.63;;
24259;SDS011;12384;48.112;18.418;2023-03-14T12:18:47;12.07;;;11.17;;
24259;SDS011;12384;48.112;18.418;2023-03-14T12:21:16;13.03;;;11.93;;
24259;SDS011;12384;48.112;18.418;2023-03-14T12:23:45;12.20;;;11.00;;
24259;SDS011;12384;48.112;18.418;2023-03-14T12:26:18;11.73;;;10.83;;
24259;SDS011;12384;48.112;18.418;2023-03-14T12:28:50;12.87;;;10.40;;
24259;SDS011;12384;48.112;18.418;2023-03-14T12:31:35;13.83;;;9.63;;
24259;SDS011;12384;48.112;18.418;2023-03-14T12:37:02;9.60;;;7.60;;
24259;SDS011;12384;48.112;18.418;2023-03-14T12:39:40;9.50;;;8.50;;
24259;SDS011;12384;48.112;18.418;2023-03-14T12:42:17;10.13;;;9.20;;
24259;SDS011;12384;48.112;18.418;2023-03-14T12:45:21;9.07;;;8.23;;
24259;SDS011;12384;48.112;18.418;2023-03-14T12:47:56;8.87;;;8.27;;
24259;SDS011;12384;48.112;18.418;2023-03-14T12:50:41;8.27;;;7.60;;
24259;SDS011;12384;48.112;18.418;2023-03-14T12:56:28;8.73;;;7.73;;
24259;SDS011;12384;48.112;18.418;2023-03-14T12:59:27;9.17;;;8.33;;
24259;SDS011;12384;48.112;18.418;2023-03-14T13:02:01;8.47;;;7.87;;
24259;SDS011;12384;48.112;18.418;2023-03-14T13:04:45;10.70;;;8.40;;
24259;SDS011;12384;48.112;18.418;2023-03-14T13:07:31;10.77;;;8.60;;
24259;SDS011;12384;48.112;18.418;2023-03-14T13:10:24;9.07;;;8.00;;
24259;SDS011;12384;48.112;18.418;2023-03-14T13:12:54;9.63;;;8.77;;
24259;SDS011;12384;48.112;18.418;2023-03-14T13:15:26;9.83;;;8.47;;
24259;SDS011;12384;48.112;18.418;2023-03-14T13:18:01;9.50;;;8.60;;
24259;SDS011;12384;48.112;18.418;2023-03-14T13:20:37;8.97;;;8.10;;
24259;SDS011;12384;48.112;18.418;2023-03-14T13:23:19;8.30;;;7.50;;
24259;SDS011;12384;48.112;18.418;2023-03-14T13:25:48;8.30;;;7.60;;
24259;SDS011;12384;48.112;18.418;2023-03-14T13:28:17;8.60;;;7.70;;
24259;SDS011;12384;48.112;18.418;2023-03-14T13:30:47;9.37;;;8.77;;
24259;SDS011;12384;48.112;18.418;2023-03-14T13:33:19;9.57;;;8.77;;
24259;SDS011;12384;48.112;18.418;2023-03-14T13:35:50;9.57;;;8.73;;
24259;SDS011;12384;48.112;18.418;2023-03-14T13:38:23;9.40;;;8.70;;
24259;SDS011;12384;48.112;18.418;2023-03-14T13:40:54;10.17;;;9.40;;
24259;SDS011;12384;48.112;18.418;2023-03-14T13:43:28;10.00;;;9.23;;
24259;SDS011;12384;48.112;18.418;2023-03-14T13:46:01;10.47;;;8.70;;
24259;SDS011;12384;48.112;18.418;2023-03-14T13:48:34;9.80;;;8.93;;
24259;SDS011;12384;48.112;18.418;2023-03-14T13:51:10;10.03;;;9.23;;
24259;SDS011;12384;48.112;18.418;2023-03-14T13:53:44;10.67;;;9.87;;
24259;SDS011;12384;48.112;18.418;2023-03-14T13:56:13;11.27;;;10.57;;
24259;SDS011;12384;48.112;18.418;2023-03-14T13:58:42;11.07;;;10.30;;
24259;SDS011;12384;48.112;18.418;2023-03-14T14:01:12;20.07;;;18.57;;
24259;SDS011;12384;48.112;18.418;2023-03-14T14:03:45;20.07;;;18.50;;
24259;SDS011;12384;48.112;18.418;2023-03-14T14:06:28;20.53;;;18.90;;
24259;SDS011;12384;48.112;18.418;2023-03-14T14:08:59;20.73;;;19.13;;
24259;SDS011;12384;48.112;18.418;2023-03-14T14:11:41;20.50;;;19.00;;
24259;SDS011;12384;48.112;18.418;2023-03-14T14:14:30;20.07;;;18.27;;
24259;SDS011;12384;48.112;18.418;2023-03-14T14:17:03;20.70;;;18.93;;
24259;SDS011;12384;48.112;18.418;2023-03-14T14:19:37;19.20;;;17.73;;
24259;SDS011;12384;48.112;18.418;2023-03-14T14:22:08;13.60;;;12.70;;
24259;SDS011;12384;48.112;18.418;2023-03-14T14:24:37;11.47;;;10.87;;
24259;SDS011;12384;48.112;18.418;2023-03-14T14:27:08;12.40;;;11.50;;
24259;SDS011;12384;48.112;18.418;2023-03-14T14:29:40;12.33;;;11.53;;
24259;SDS011;12384;48.112;18.418;2023-03-14T14:32:11;11.87;;;11.07;;
24259;SDS011;12384;48.112;18.418;2023-03-14T14:34:43;13.43;;;12.53;;
24259;SDS011;12384;48.112;18.418;2023-03-14T14:37:19;11.03;;;10.33;;
24259;SDS011;12384;48.112;18.418;2023-03-14T14:39:54;11.10;;;10.40;;
24259;SDS011;12384;48.112;18.418;2023-03-14T14:42:25;13.10;;;12.00;;
24259;SDS011;12384;48.112;18.418;2023-03-14T14:44:57;13.10;;;12.20;;
24259;SDS011;12384;48.112;18.418;2023-03-14T14:47:28;13.93;;;12.83;;
24259;SDS011;12384;48.112;18.418;2023-03-14T14:50:00;14.53;;;13.43;;
24259;SDS011;12384;48.112;18.418;2023-03-14T14:52:34;14.40;;;13.30;;
24259;SDS011;12384;48.112;18.418;2023-03-14T14:55:11;13.27;;;12.27;;